sensor_id;sensor_type;location;lat;lon;timestamp;P1;durP1;ratioP1;P2;durP2;ratioP2
29662;SDS011;16578;53.266;7.920;2023-06-26T00:01:57;8.15;;;7.35;;
29662;SDS011;16578;53.266;7.920;2023-06-26T00:04:22;7.68;;;6.97;;
29662;SDS011;16578;53.266;7.920;2023-06-26T00:06:48;7.85;;;7.05;;
29662;SDS011;16578;53.266;7.920;2023-06-26T00:09:13;8.20;;;7.50;;
29662;SDS011;16578;53.266;7.920;2023-06-26T00:11:39;8.32;;;7.53;;
29662;SDS011;16578;53.266;7.920;2023-06-26T00:14:05;8.50;;;7.70;;
29662;SDS011;16578;53.266;7.920;2023-06-26T00:16:31;8.13;;;7.22;;
29662;SDS011;16578;53.266;7.920;2023-06-26T00:18:57;7.80;;;7.10;;
29662;SDS011;16578;53.266;7.920;2023-06-26T00:21:24;8.82;;;7.95;;
29662;SDS011;16578;53.266;7.920;2023-06-26T00:23:50;8.63;;;7.78;;
29662;SDS011;16578;53.266;7.920;2023-06-26T00:26:16;8.80;;;7.90;;
29662;SDS011;16578;53.266;7.920;2023-06-26T00:28:41;8.82;;;7.60;;
29662;SDS011;16578;53.266;7.920;2023-06-26T00:31:07;8.20;;;7.40;;
29662;SDS011;16578;53.266;7.920;2023-06-26T00:33:32;8.35;;;7.55;;
29662;SDS011;16578;53.266;7.920;2023-06-26T00:35:58;8.55;;;7.75;;
29662;SDS011;16578;53.266;7.920;2023-06-26T00:38:24;8.65;;;7.85;;
29662;SDS011;16578;53.266;7.920;2023-06-26T00:40:50;8.95;;;8.05;;
29662;SDS011;16578;53.266;7.920;2023-06-26T00:43:15;8.88;;;7.97;;
29662;SDS011;16578;53.266;7.920;2023-06-26T00:45:41;8.50;;;7.72;;
29662;SDS011;16578;53.266;7.920;2023-06-26T00:48:06;7.38;;;6.72;;
29662;SDS011;16578;53.266;7.920;2023-06-26T00:50:32;8.63;;;7.72;;
29662;SDS011;16578;53.266;7.920;2023-06-26T00:52:58;8.68;;;7.88;;
29662;SDS011;16578;53.266;7.920;2023-06-26T00:55:26;9.00;;;7.80;;
29662;SDS011;16578;53.266;7.920;2023-06-26T00:57:52;8.93;;;8.02;;
29662;SDS011;16578;53.266;7.920;2023-06-26T01:00:19;9.32;;;8.43;;
29662;SDS011;16578;53.266;7.920;2023-06-26T01:02:45;8.70;;;7.90;;
29662;SDS011;16578;53.266;7.920;2023-06-26T01:05:11;11.40;;;8.23;;
29662;SDS011;16578;53.266;7.920;2023-06-26T01:07:37;9.40;;;8.43;;
29662;SDS011;16578;53.266;7.920;2023-06-26T01:10:04;9.52;;;8.52;;
29662;SDS011;16578;53.266;7.920;2023-06-26T01:12:31;9.10;;;7.88;;
29662;SDS011;16578;53.266;7.920;2023-06-26T01:14:58;9.43;;;8.52;;
29662;SDS011;16578;53.266;7.920;2023-06-26T01:17:24;9.85;;;8.88;;
29662;SDS011;16578;53.266;7.920;2023-06-26T01:19:50;9.07;;;8.18;;
29662;SDS011;16578;53.266;7.920;2023-06-26T01:27:55;9.15;;;8.25;;
29662;SDS011;16578;53.266;7.920;2023-06-26T01:30:21;8.82;;;8.02;;
29662;SDS011;16578;53.266;7.920;2023-06-26T01:32:48;8.63;;;7.82;;
29662;SDS011;16578;53.266;7.920;2023-06-26T01:35:14;9.13;;;8.25;;
29662;SDS011;16578;53.266;7.920;2023-06-26T01:37:40;9.15;;;8.35;;
29662;SDS011;16578;53.266;7.920;2023-06-26T01:40:06;8.95;;;8.15;;
29662;SDS011;16578;53.266;7.920;2023-06-26T01:42:33;10.70;;;8.60;;
29662;SDS011;16578;53.266;7.920;2023-06-26T01:45:02;9.45;;;8.45;;
29662;SDS011;16578;53.266;7.920;2023-06-26T01:47:40;8.77;;;8.00;;
29662;SDS011;16578;53.266;7.920;2023-06-26T01:50:09;9.05;;;8.15;;
29662;SDS011;16578;53.266;7.920;2023-06-26T01:52:46;9.27;;;8.40;;
29662;SDS011;16578;53.266;7.920;2023-06-26T01:55:31;9.73;;;8.77;;
29662;SDS011;16578;53.266;7.920;2023-06-26T01:58:05;10.15;;;9.15;;
29662;SDS011;16578;53.266;7.920;2023-06-26T02:00:31;9.75;;;8.75;;
29662;SDS011;16578;53.266;7.920;2023-06-26T02:02:58;9.52;;;8.63;;
29662;SDS011;16578;53.266;7.920;2023-06-26T02:05:24;9.40;;;8.50;;
29662;SDS011;16578;53.266;7.920;2023-06-26T02:07:49;10.27;;;9.30;;
29662;SDS011;16578;53.266;7.920;2023-06-26T02:10:16;11.88;;;8.93;;
29662;SDS011;16578;53.266;7.920;2023-06-26T02:12:42;8.98;;;8.13;;
29662;SDS011;16578;53.266;7.920;2023-06-26T02:15:08;11.52;;;9.60;;
29662;SDS011;16578;53.266;7.920;2023-06-26T02:17:34;9.93;;;9.02;;
29662;SDS011;16578;53.266;7.920;2023-06-26T02:19:59;10.07;;;9.07;;
29662;SDS011;16578;53.266;7.920;2023-06-26T02:22:25;9.98;;;9.07;;
29662;SDS011;16578;53.266;7.920;2023-06-26T02:24:50;9.75;;;8.75;;
29662;SDS011;16578;53.266;7.920;2023-06-26T02:27:16;10.13;;;8.98;;
29662;SDS011;16578;53.266;7.920;2023-06-26T02:29:41;9.75;;;8.85;;
29662;SDS011;16578;53.266;7.920;2023-06-26T02:32:07;9.68;;;8.68;;
29662;SDS011;16578;53.266;7.920;2023-06-26T02:34:33;9.98;;;9.02;;
29662;SDS011;16578;53.266;7.920;2023-06-26T02:36:59;10.10;;;9.10;;
29662;SDS011;16578;53.266;7.920;2023-06-26T02:39:25;8.45;;;7.65;;
29662;SDS011;16578;53.266;7.920;2023-06-26T02:41:51;9.63;;;8.55;;
29662;SDS011;16578;53.266;7.920;2023-06-26T02:44:17;8.82;;;8.02;;
29662;SDS011;16578;53.266;7.920;2023-06-26T02:46:43;10.05;;;9.07;;
29662;SDS011;16578;53.266;7.920;2023-06-26T02:49:08;9.25;;;8.32;;
29662;SDS011;16578;53.266;7.920;2023-06-26T02:51:34;9.88;;;8.98;;
29662;SDS011;16578;53.266;7.920;2023-06-26T02:54:00;11.30;;;8.60;;
29662;SDS011;16578;53.266;7.920;2023-06-26T02:56:26;9.32;;;8.52;;
29662;SDS011;16578;53.266;7.920;2023-06-26T02:58:57;9.02;;;8.23;;
29662;SDS011;16578;53.266;7.920;2023-06-26T03:01:23;8.50;;;7.70;;
29662;SDS011;16578;53.266;7.920;2023-06-26T03:03:49;11.73;;;9.25;;
29662;SDS011;16578;53.266;7.920;2023-06-26T03:06:14;9.77;;;8.65;;
29662;SDS011;16578;53.266;7.920;2023-06-26T03:08:40;9.88;;;8.88;;
29662;SDS011;16578;53.266;7.920;2023-06-26T03:11:06;10.02;;;9.02;;
29662;SDS011;16578;53.266;7.920;2023-06-26T03:13:34;9.50;;;8.60;;
29662;SDS011;16578;53.266;7.920;2023-06-26T03:16:00;8.73;;;7.93;;
29662;SDS011;16578;53.266;7.920;2023-06-26T03:18:25;9.45;;;8.55;;
29662;SDS011;16578;53.266;7.920;2023-06-26T03:20:51;9.80;;;8.60;;
29662;SDS011;16578;53.266;7.920;2023-06-26T03:23:19;10.13;;;8.48;;
29662;SDS011;16578;53.266;7.920;2023-06-26T03:25:45;9.70;;;8.80;;
29662;SDS011;16578;53.266;7.920;2023-06-26T03:28:11;9.38;;;8.25;;
29662;SDS011;16578;53.266;7.920;2023-06-26T03:30:36;10.70;;;9.70;;
29662;SDS011;16578;53.266;7.920;2023-06-26T03:33:02;9.32;;;8.43;;
29662;SDS011;16578;53.266;7.920;2023-06-26T03:35:28;9.13;;;8.30;;
29662;SDS011;16578;53.266;7.920;2023-06-26T03:37:53;11.18;;;8.75;;
29662;SDS011;16578;53.266;7.920;2023-06-26T03:40:19;10.07;;;9.07;;
29662;SDS011;16578;53.266;7.920;2023-06-26T03:42:45;10.55;;;8.18;;
29662;SDS011;16578;53.266;7.920;2023-06-26T03:45:11;9.60;;;8.70;;
29662;SDS011;16578;53.266;7.920;2023-06-26T03:47:36;8.95;;;8.15;;
29662;SDS011;16578;53.266;7.920;2023-06-26T03:50:02;9.63;;;8.63;;
29662;SDS011;16578;53.266;7.920;2023-06-26T03:52:27;8.95;;;8.05;;
29662;SDS011;16578;53.266;7.920;2023-06-26T03:54:55;9.43;;;8.52;;
29662;SDS011;16578;53.266;7.920;2023-06-26T03:57:22;10.05;;;8.13;;
29662;SDS011;16578;53.266;7.920;2023-06-26T03:59:47;9.73;;;8.75;;
29662;SDS011;16578;53.266;7.920;2023-06-26T04:02:13;9.35;;;8.50;;
29662;SDS011;16578;53.266;7.920;2023-06-26T04:04:38;9.32;;;8.20;;
29662;SDS011;16578;53.266;7.920;2023-06-26T04:07:04;8.98;;;8.13;;
29662;SDS011;16578;53.266;7.920;2023-06-26T04:09:30;9.55;;;8.55;;
29662;SDS011;16578;53.266;7.920;2023-06-26T04:11:55;10.65;;;8.93;;
29662;SDS011;16578;53.266;7.920;2023-06-26T04:14:21;10.02;;;9.07;;
29662;SDS011;16578;53.266;7.920;2023-06-26T04:16:46;9.05;;;8.15;;
29662;SDS011;16578;53.266;7.920;2023-06-26T04:19:12;11.15;;;8.20;;
29662;SDS011;16578;53.266;7.920;2023-06-26T04:21:38;10.07;;;8.82;;
29662;SDS011;16578;53.266;7.920;2023-06-26T04:24:04;10.05;;;8.35;;
29662;SDS011;16578;53.266;7.920;2023-06-26T04:26:30;9.32;;;8.43;;
29662;SDS011;16578;53.266;7.920;2023-06-26T04:28:55;10.02;;;9.13;;
29662;SDS011;16578;53.266;7.920;2023-06-26T04:31:21;10.18;;;9.18;;
29662;SDS011;16578;53.266;7.920;2023-06-26T04:33:47;10.35;;;9.05;;
29662;SDS011;16578;53.266;7.920;2023-06-26T04:36:16;10.13;;;8.63;;
29662;SDS011;16578;53.266;7.920;2023-06-26T04:38:42;10.13;;;9.13;;
29662;SDS011;16578;53.266;7.920;2023-06-26T04:41:08;10.00;;;9.02;;
29662;SDS011;16578;53.266;7.920;2023-06-26T04:43:34;10.02;;;8.90;;
29662;SDS011;16578;53.266;7.920;2023-06-26T04:46:00;10.60;;;9.55;;
29662;SDS011;16578;53.266;7.920;2023-06-26T04:48:27;10.95;;;9.15;;
29662;SDS011;16578;53.266;7.920;2023-06-26T04:50:53;11.88;;;8.95;;
29662;SDS011;16578;53.266;7.920;2023-06-26T04:53:20;10.70;;;9.60;;
29662;SDS011;16578;53.266;7.920;2023-06-26T04:55:46;10.50;;;9.38;;
29662;SDS011;16578;53.266;7.920;2023-06-26T04:58:12;9.73;;;8.75;;
29662;SDS011;16578;53.266;7.920;2023-06-26T05:00:37;9.88;;;8.88;;
29662;SDS011;16578;53.266;7.920;2023-06-26T05:03:03;10.15;;;9.10;;
29662;SDS011;16578;53.266;7.920;2023-06-26T05:05:28;12.23;;;10.07;;
29662;SDS011;16578;53.266;7.920;2023-06-26T05:07:54;9.95;;;8.95;;
29662;SDS011;16578;53.266;7.920;2023-06-26T05:10:21;11.10;;;9.90;;
29662;SDS011;16578;53.266;7.920;2023-06-26T05:12:46;10.98;;;9.85;;
29662;SDS011;16578;53.266;7.920;2023-06-26T05:15:12;14.13;;;10.23;;
29662;SDS011;16578;53.266;7.920;2023-06-26T05:17:37;10.40;;;8.88;;
29662;SDS011;16578;53.266;7.920;2023-06-26T05:20:03;12.18;;;10.05;;
29662;SDS011;16578;53.266;7.920;2023-06-26T05:22:30;10.68;;;9.38;;
29662;SDS011;16578;53.266;7.920;2023-06-26T05:24:58;10.82;;;9.70;;
29662;SDS011;16578;53.266;7.920;2023-06-26T05:27:25;10.23;;;9.30;;
29662;SDS011;16578;53.266;7.920;2023-06-26T05:29:51;10.38;;;9.27;;
29662;SDS011;16578;53.266;7.920;2023-06-26T05:32:17;10.40;;;9.27;;
29662;SDS011;16578;53.266;7.920;2023-06-26T05:34:44;12.13;;;9.40;;
29662;SDS011;16578;53.266;7.920;2023-06-26T05:37:14;9.98;;;9.07;;
29662;SDS011;16578;53.266;7.920;2023-06-26T05:39:45;10.73;;;9.65;;
29662;SDS011;16578;53.266;7.920;2023-06-26T05:42:11;11.85;;;10.65;;
29662;SDS011;16578;53.266;7.920;2023-06-26T05:44:37;10.77;;;9.55;;
29662;SDS011;16578;53.266;7.920;2023-06-26T05:47:02;10.93;;;9.90;;
29662;SDS011;16578;53.266;7.920;2023-06-26T05:49:28;11.60;;;9.95;;
29662;SDS011;16578;53.266;7.920;2023-06-26T05:51:54;12.23;;;10.27;;
29662;SDS011;16578;53.266;7.920;2023-06-26T05:54:20;9.93;;;9.00;;
29662;SDS011;16578;53.266;7.920;2023-06-26T05:56:46;10.35;;;9.35;;
29662;SDS011;16578;53.266;7.920;2023-06-26T05:59:13;10.18;;;9.15;;
29662;SDS011;16578;53.266;7.920;2023-06-26T06:01:40;10.95;;;9.85;;
29662;SDS011;16578;53.266;7.920;2023-06-26T06:04:06;11.68;;;10.57;;
29662;SDS011;16578;53.266;7.920;2023-06-26T06:06:31;11.50;;;10.30;;
29662;SDS011;16578;53.266;7.920;2023-06-26T06:08:57;11.27;;;10.18;;
29662;SDS011;16578;53.266;7.920;2023-06-26T06:11:22;10.30;;;9.30;;
29662;SDS011;16578;53.266;7.920;2023-06-26T06:13:48;12.15;;;9.98;;
29662;SDS011;16578;53.266;7.920;2023-06-26T06:16:14;10.80;;;9.70;;
29662;SDS011;16578;53.266;7.920;2023-06-26T06:18:40;10.60;;;9.55;;
29662;SDS011;16578;53.266;7.920;2023-06-26T06:21:06;10.48;;;9.38;;
29662;SDS011;16578;53.266;7.920;2023-06-26T06:23:31;10.00;;;8.73;;
29662;SDS011;16578;53.266;7.920;2023-06-26T06:25:57;9.93;;;9.00;;
29662;SDS011;16578;53.266;7.920;2023-06-26T06:28:22;10.55;;;9.52;;
29662;SDS011;16578;53.266;7.920;2023-06-26T06:30:48;9.98;;;8.98;;
29662;SDS011;16578;53.266;7.920;2023-06-26T06:33:13;11.27;;;9.30;;
29662;SDS011;16578;53.266;7.920;2023-06-26T06:35:39;11.63;;;9.93;;
29662;SDS011;16578;53.266;7.920;2023-06-26T06:38:05;10.45;;;9.40;;
29662;SDS011;16578;53.266;7.920;2023-06-26T06:40:30;10.70;;;9.57;;
29662;SDS011;16578;53.266;7.920;2023-06-26T06:42:56;10.05;;;9.15;;
29662;SDS011;16578;53.266;7.920;2023-06-26T06:45:21;12.05;;;10.07;;
29662;SDS011;16578;53.266;7.920;2023-06-26T06:47:47;11.63;;;9.07;;
29662;SDS011;16578;53.266;7.920;2023-06-26T06:50:12;12.18;;;10.02;;
29662;SDS011;16578;53.266;7.920;2023-06-26T06:52:40;9.90;;;8.90;;
29662;SDS011;16578;53.266;7.920;2023-06-26T06:55:07;13.10;;;9.25;;
29662;SDS011;16578;53.266;7.920;2023-06-26T06:57:37;12.73;;;9.88;;
29662;SDS011;16578;53.266;7.920;2023-06-26T07:00:04;11.65;;;9.52;;
29662;SDS011;16578;53.266;7.920;2023-06-26T07:02:33;10.93;;;8.93;;
29662;SDS011;16578;53.266;7.920;2023-06-26T07:05:09;15.18;;;8.68;;
29662;SDS011;16578;53.266;7.920;2023-06-26T07:07:35;12.15;;;9.15;;
29662;SDS011;16578;53.266;7.920;2023-06-26T07:10:05;10.57;;;9.18;;
29662;SDS011;16578;53.266;7.920;2023-06-26T07:12:32;11.43;;;9.30;;
29662;SDS011;16578;53.266;7.920;2023-06-26T07:14:59;10.13;;;8.73;;
29662;SDS011;16578;53.266;7.920;2023-06-26T07:17:25;11.55;;;9.02;;
29662;SDS011;16578;53.266;7.920;2023-06-26T07:19:51;12.65;;;9.10;;
29662;SDS011;16578;53.266;7.920;2023-06-26T07:22:17;14.30;;;9.25;;
29662;SDS011;16578;53.266;7.920;2023-06-26T07:24:45;13.07;;;9.93;;
29662;SDS011;16578;53.266;7.920;2023-06-26T07:27:14;13.73;;;10.20;;
29662;SDS011;16578;53.266;7.920;2023-06-26T07:29:41;12.32;;;9.48;;
29662;SDS011;16578;53.266;7.920;2023-06-26T07:32:06;13.10;;;10.20;;
29662;SDS011;16578;53.266;7.920;2023-06-26T07:34:32;13.55;;;10.05;;
29662;SDS011;16578;53.266;7.920;2023-06-26T07:36:58;15.60;;;9.98;;
29662;SDS011;16578;53.266;7.920;2023-06-26T07:39:24;15.85;;;9.70;;
29662;SDS011;16578;53.266;7.920;2023-06-26T07:41:49;13.95;;;7.57;;
29662;SDS011;16578;53.266;7.920;2023-06-26T07:44:15;11.02;;;7.70;;
29662;SDS011;16578;53.266;7.920;2023-06-26T07:46:40;10.85;;;6.57;;
29662;SDS011;16578;53.266;7.920;2023-06-26T07:49:06;11.00;;;6.28;;
29662;SDS011;16578;53.266;7.920;2023-06-26T07:51:32;10.30;;;6.13;;
29662;SDS011;16578;53.266;7.920;2023-06-26T07:53:57;11.32;;;6.50;;
29662;SDS011;16578;53.266;7.920;2023-06-26T07:56:23;9.13;;;5.63;;
29662;SDS011;16578;53.266;7.920;2023-06-26T07:58:48;9.75;;;5.68;;
29662;SDS011;16578;53.266;7.920;2023-06-26T08:01:14;10.52;;;5.68;;
29662;SDS011;16578;53.266;7.920;2023-06-26T08:03:39;9.23;;;5.45;;
29662;SDS011;16578;53.266;7.920;2023-06-26T08:06:05;9.20;;;5.22;;
29662;SDS011;16578;53.266;7.920;2023-06-26T08:08:31;8.20;;;4.95;;
29662;SDS011;16578;53.266;7.920;2023-06-26T08:10:56;8.70;;;4.95;;
29662;SDS011;16578;53.266;7.920;2023-06-26T08:13:22;10.27;;;4.57;;
29662;SDS011;16578;53.266;7.920;2023-06-26T08:15:47;8.60;;;4.80;;
29662;SDS011;16578;53.266;7.920;2023-06-26T08:18:13;7.85;;;3.80;;
29662;SDS011;16578;53.266;7.920;2023-06-26T08:20:38;7.97;;;3.78;;
29662;SDS011;16578;53.266;7.920;2023-06-26T08:23:04;7.07;;;3.35;;
29662;SDS011;16578;53.266;7.920;2023-06-26T08:25:30;7.93;;;3.80;;
29662;SDS011;16578;53.266;7.920;2023-06-26T08:27:55;6.88;;;3.60;;
29662;SDS011;16578;53.266;7.920;2023-06-26T08:30:21;6.43;;;3.10;;
29662;SDS011;16578;53.266;7.920;2023-06-26T08:32:48;5.97;;;3.10;;
29662;SDS011;16578;53.266;7.920;2023-06-26T08:35:13;6.97;;;3.10;;
29662;SDS011;16578;53.266;7.920;2023-06-26T08:37:39;4.35;;;2.38;;
29662;SDS011;16578;53.266;7.920;2023-06-26T08:40:05;5.93;;;2.40;;
29662;SDS011;16578;53.266;7.920;2023-06-26T08:42:31;4.70;;;2.65;;
29662;SDS011;16578;53.266;7.920;2023-06-26T08:44:57;5.22;;;2.05;;
29662;SDS011;16578;53.266;7.920;2023-06-26T08:47:23;7.63;;;2.83;;
29662;SDS011;16578;53.266;7.920;2023-06-26T08:52:53;4.80;;;2.30;;
29662;SDS011;16578;53.266;7.920;2023-06-26T08:55:29;5.05;;;2.13;;
29662;SDS011;16578;53.266;7.920;2023-06-26T08:57:56;7.75;;;2.60;;
29662;SDS011;16578;53.266;7.920;2023-06-26T09:00:23;6.35;;;2.53;;
29662;SDS011;16578;53.266;7.920;2023-06-26T09:02:48;4.03;;;2.00;;
29662;SDS011;16578;53.266;7.920;2023-06-26T09:05:14;8.02;;;2.38;;
29662;SDS011;16578;53.266;7.920;2023-06-26T09:07:40;13.13;;;2.63;;
29662;SDS011;16578;53.266;7.920;2023-06-26T09:10:06;6.05;;;2.40;;
29662;SDS011;16578;53.266;7.920;2023-06-26T09:12:32;4.22;;;2.17;;
29662;SDS011;16578;53.266;7.920;2023-06-26T09:14:58;5.25;;;2.10;;
29662;SDS011;16578;53.266;7.920;2023-06-26T09:17:25;4.22;;;1.90;;
29662;SDS011;16578;53.266;7.920;2023-06-26T09:19:53;5.65;;;2.28;;
29662;SDS011;16578;53.266;7.920;2023-06-26T09:22:19;7.50;;;2.58;;
29662;SDS011;16578;53.266;7.920;2023-06-26T09:24:45;6.22;;;2.13;;
29662;SDS011;16578;53.266;7.920;2023-06-26T09:27:11;6.47;;;1.85;;
29662;SDS011;16578;53.266;7.920;2023-06-26T09:29:37;5.53;;;2.00;;
29662;SDS011;16578;53.266;7.920;2023-06-26T09:32:04;4.55;;;2.00;;
29662;SDS011;16578;53.266;7.920;2023-06-26T09:34:30;4.25;;;1.55;;
29662;SDS011;16578;53.266;7.920;2023-06-26T09:36:57;2.97;;;1.75;;
29662;SDS011;16578;53.266;7.920;2023-06-26T09:39:24;5.03;;;1.80;;
29662;SDS011;16578;53.266;7.920;2023-06-26T09:41:49;4.35;;;1.80;;
29662;SDS011;16578;53.266;7.920;2023-06-26T09:44:15;6.97;;;2.00;;
29662;SDS011;16578;53.266;7.920;2023-06-26T09:46:41;4.80;;;2.05;;
29662;SDS011;16578;53.266;7.920;2023-06-26T09:49:10;4.22;;;1.70;;
29662;SDS011;16578;53.266;7.920;2023-06-26T09:51:37;4.38;;;2.25;;
29662;SDS011;16578;53.266;7.920;2023-06-26T09:54:04;7.63;;;2.13;;
29662;SDS011;16578;53.266;7.920;2023-06-26T09:56:30;6.03;;;2.03;;
29662;SDS011;16578;53.266;7.920;2023-06-26T09:58:57;3.03;;;1.50;;
29662;SDS011;16578;53.266;7.920;2023-06-26T10:01:24;3.03;;;1.80;;
29662;SDS011;16578;53.266;7.920;2023-06-26T10:03:50;6.65;;;1.80;;
29662;SDS011;16578;53.266;7.920;2023-06-26T10:06:22;4.15;;;1.88;;
29662;SDS011;16578;53.266;7.920;2023-06-26T10:08:52;5.18;;;1.88;;
29662;SDS011;16578;53.266;7.920;2023-06-26T10:11:19;5.90;;;2.13;;
29662;SDS011;16578;53.266;7.920;2023-06-26T10:13:47;4.78;;;1.83;;
29662;SDS011;16578;53.266;7.920;2023-06-26T10:16:18;4.07;;;1.95;;
29662;SDS011;16578;53.266;7.920;2023-06-26T10:18:56;5.20;;;1.70;;
29662;SDS011;16578;53.266;7.920;2023-06-26T10:21:26;10.57;;;2.00;;
29662;SDS011;16578;53.266;7.920;2023-06-26T10:23:54;3.33;;;1.48;;
29662;SDS011;16578;53.266;7.920;2023-06-26T10:26:21;3.40;;;1.73;;
29662;SDS011;16578;53.266;7.920;2023-06-26T10:28:49;2.95;;;2.10;;
29662;SDS011;16578;53.266;7.920;2023-06-26T10:31:18;6.50;;;1.60;;
29662;SDS011;16578;53.266;7.920;2023-06-26T10:33:47;5.22;;;2.08;;
29662;SDS011;16578;53.266;7.920;2023-06-26T10:36:15;5.35;;;2.08;;
29662;SDS011;16578;53.266;7.920;2023-06-26T10:38:49;4.55;;;1.65;;
29662;SDS011;16578;53.266;7.920;2023-06-26T10:41:23;3.22;;;1.67;;
29662;SDS011;16578;53.266;7.920;2023-06-26T10:43:50;6.00;;;2.00;;
29662;SDS011;16578;53.266;7.920;2023-06-26T10:46:17;6.30;;;2.03;;
29662;SDS011;16578;53.266;7.920;2023-06-26T10:49:17;3.92;;;1.88;;
29662;SDS011;16578;53.266;7.920;2023-06-26T10:51:37;3.78;;;1.70;;
29662;SDS011;16578;53.266;7.920;2023-06-26T10:54:02;4.55;;;2.40;;
29662;SDS011;16578;53.266;7.920;2023-06-26T10:56:41;4.00;;;2.33;;
29662;SDS011;16578;53.266;7.920;2023-06-26T10:59:15;2.33;;;1.63;;
29662;SDS011;16578;53.266;7.920;2023-06-26T11:01:42;2.47;;;1.80;;
29662;SDS011;16578;53.266;7.920;2023-06-26T11:04:09;3.78;;;1.85;;
29662;SDS011;16578;53.266;7.920;2023-06-26T11:06:36;3.88;;;1.83;;
29662;SDS011;16578;53.266;7.920;2023-06-26T11:14:17;4.03;;;1.80;;
29662;SDS011;16578;53.266;7.920;2023-06-26T11:16:44;2.92;;;1.50;;
29662;SDS011;16578;53.266;7.920;2023-06-26T11:19:09;3.53;;;2.00;;
29662;SDS011;16578;53.266;7.920;2023-06-26T11:21:39;4.15;;;2.17;;
29662;SDS011;16578;53.266;7.920;2023-06-26T11:24:08;5.28;;;2.28;;
29662;SDS011;16578;53.266;7.920;2023-06-26T11:26:41;3.83;;;1.75;;
29662;SDS011;16578;53.266;7.920;2023-06-26T11:29:08;6.22;;;2.08;;
29662;SDS011;16578;53.266;7.920;2023-06-26T11:31:34;3.90;;;2.08;;
29662;SDS011;16578;53.266;7.920;2023-06-26T11:34:03;3.90;;;1.92;;
29662;SDS011;16578;53.266;7.920;2023-06-26T11:36:30;3.75;;;1.70;;
29662;SDS011;16578;53.266;7.920;2023-06-26T11:38:57;5.00;;;2.13;;
29662;SDS011;16578;53.266;7.920;2023-06-26T11:41:26;3.17;;;2.00;;
29662;SDS011;16578;53.266;7.920;2023-06-26T11:43:56;4.13;;;2.08;;
29662;SDS011;16578;53.266;7.920;2023-06-26T11:46:26;4.85;;;2.13;;
29662;SDS011;16578;53.266;7.920;2023-06-26T11:48:53;5.32;;;2.03;;
29662;SDS011;16578;53.266;7.920;2023-06-26T11:51:19;3.10;;;1.65;;
29662;SDS011;16578;53.266;7.920;2023-06-26T11:53:47;3.22;;;1.98;;
29662;SDS011;16578;53.266;7.920;2023-06-26T11:56:16;4.22;;;2.08;;
29662;SDS011;16578;53.266;7.920;2023-06-26T11:58:54;3.08;;;1.90;;
29662;SDS011;16578;53.266;7.920;2023-06-26T12:01:34;3.90;;;2.28;;
29662;SDS011;16578;53.266;7.920;2023-06-26T12:04:01;6.70;;;2.00;;
29662;SDS011;16578;53.266;7.920;2023-06-26T12:06:28;6.65;;;2.50;;
29662;SDS011;16578;53.266;7.920;2023-06-26T12:08:55;3.50;;;1.98;;
29662;SDS011;16578;53.266;7.920;2023-06-26T12:11:22;6.32;;;2.13;;
29662;SDS011;16578;53.266;7.920;2023-06-26T12:13:49;7.35;;;2.58;;
29662;SDS011;16578;53.266;7.920;2023-06-26T12:16:15;4.50;;;2.20;;
29662;SDS011;16578;53.266;7.920;2023-06-26T12:18:41;5.35;;;2.58;;
29662;SDS011;16578;53.266;7.920;2023-06-26T12:21:07;5.53;;;2.22;;
29662;SDS011;16578;53.266;7.920;2023-06-26T12:23:33;4.22;;;2.40;;
29662;SDS011;16578;53.266;7.920;2023-06-26T12:26:15;4.97;;;2.20;;
29662;SDS011;16578;53.266;7.920;2023-06-26T12:28:44;4.22;;;1.77;;
29662;SDS011;16578;53.266;7.920;2023-06-26T12:31:17;5.43;;;2.13;;
29662;SDS011;16578;53.266;7.920;2023-06-26T12:33:45;3.97;;;1.95;;
29662;SDS011;16578;53.266;7.920;2023-06-26T12:36:11;5.03;;;2.08;;
29662;SDS011;16578;53.266;7.920;2023-06-26T12:38:37;3.05;;;1.80;;
29662;SDS011;16578;53.266;7.920;2023-06-26T12:41:03;5.40;;;2.50;;
29662;SDS011;16578;53.266;7.920;2023-06-26T12:43:29;3.30;;;2.03;;
29662;SDS011;16578;53.266;7.920;2023-06-26T12:45:54;4.18;;;2.13;;
29662;SDS011;16578;53.266;7.920;2023-06-26T12:48:21;3.22;;;1.80;;
29662;SDS011;16578;53.266;7.920;2023-06-26T12:51:07;3.40;;;1.83;;
29662;SDS011;16578;53.266;7.920;2023-06-26T12:53:37;4.15;;;1.83;;
29662;SDS011;16578;53.266;7.920;2023-06-26T12:56:04;4.07;;;1.70;;
29662;SDS011;16578;53.266;7.920;2023-06-26T12:58:31;3.88;;;1.92;;
29662;SDS011;16578;53.266;7.920;2023-06-26T13:00:57;4.50;;;2.17;;
29662;SDS011;16578;53.266;7.920;2023-06-26T13:03:23;4.18;;;1.73;;
29662;SDS011;16578;53.266;7.920;2023-06-26T13:05:48;3.92;;;2.15;;
29662;SDS011;16578;53.266;7.920;2023-06-26T13:08:14;4.32;;;2.00;;
29662;SDS011;16578;53.266;7.920;2023-06-26T13:10:42;3.80;;;2.15;;
29662;SDS011;16578;53.266;7.920;2023-06-26T13:13:09;3.75;;;1.92;;
29662;SDS011;16578;53.266;7.920;2023-06-26T13:15:35;4.93;;;2.10;;
29662;SDS011;16578;53.266;7.920;2023-06-26T13:18:00;4.68;;;2.10;;
29662;SDS011;16578;53.266;7.920;2023-06-26T13:20:26;3.70;;;2.13;;
29662;SDS011;16578;53.266;7.920;2023-06-26T13:22:52;3.95;;;2.20;;
29662;SDS011;16578;53.266;7.920;2023-06-26T13:25:19;3.20;;;1.80;;
29662;SDS011;16578;53.266;7.920;2023-06-26T13:27:45;6.03;;;2.45;;
29662;SDS011;16578;53.266;7.920;2023-06-26T13:30:11;4.57;;;2.38;;
29662;SDS011;16578;53.266;7.920;2023-06-26T13:32:37;5.43;;;2.05;;
29662;SDS011;16578;53.266;7.920;2023-06-26T13:35:03;4.13;;;2.40;;
29662;SDS011;16578;53.266;7.920;2023-06-26T13:37:29;3.75;;;1.70;;
29662;SDS011;16578;53.266;7.920;2023-06-26T13:39:55;4.57;;;2.03;;
29662;SDS011;16578;53.266;7.920;2023-06-26T13:42:23;4.00;;;2.13;;
29662;SDS011;16578;53.266;7.920;2023-06-26T13:44:48;5.68;;;2.17;;
29662;SDS011;16578;53.266;7.920;2023-06-26T13:47:14;7.82;;;2.53;;
29662;SDS011;16578;53.266;7.920;2023-06-26T13:49:40;4.20;;;2.08;;
29662;SDS011;16578;53.266;7.920;2023-06-26T13:52:06;5.50;;;1.98;;
29662;SDS011;16578;53.266;7.920;2023-06-26T13:54:35;4.82;;;1.75;;
29662;SDS011;16578;53.266;7.920;2023-06-26T13:57:04;7.15;;;2.00;;
29662;SDS011;16578;53.266;7.920;2023-06-26T13:59:30;5.97;;;1.92;;
29662;SDS011;16578;53.266;7.920;2023-06-26T14:01:56;3.55;;;2.00;;
29662;SDS011;16578;53.266;7.920;2023-06-26T14:04:21;4.68;;;1.98;;
29662;SDS011;16578;53.266;7.920;2023-06-26T14:06:47;7.85;;;2.55;;
29662;SDS011;16578;53.266;7.920;2023-06-26T14:09:13;7.53;;;2.15;;
29662;SDS011;16578;53.266;7.920;2023-06-26T14:11:39;4.40;;;1.98;;
29662;SDS011;16578;53.266;7.920;2023-06-26T14:14:04;3.20;;;1.83;;
29662;SDS011;16578;53.266;7.920;2023-06-26T14:16:30;3.42;;;1.98;;
29662;SDS011;16578;53.266;7.920;2023-06-26T14:18:56;5.05;;;1.90;;
29662;SDS011;16578;53.266;7.920;2023-06-26T14:21:22;4.22;;;1.95;;
29662;SDS011;16578;53.266;7.920;2023-06-26T14:23:48;5.60;;;1.80;;
29662;SDS011;16578;53.266;7.920;2023-06-26T14:26:14;4.15;;;1.83;;
29662;SDS011;16578;53.266;7.920;2023-06-26T14:28:39;6.32;;;1.77;;
29662;SDS011;16578;53.266;7.920;2023-06-26T14:31:05;6.40;;;1.73;;
29662;SDS011;16578;53.266;7.920;2023-06-26T14:33:31;2.88;;;1.58;;
29662;SDS011;16578;53.266;7.920;2023-06-26T14:35:57;3.80;;;1.45;;
29662;SDS011;16578;53.266;7.920;2023-06-26T14:38:22;2.72;;;1.50;;
29662;SDS011;16578;53.266;7.920;2023-06-26T14:40:48;4.30;;;1.65;;
29662;SDS011;16578;53.266;7.920;2023-06-26T14:43:13;3.85;;;1.52;;
29662;SDS011;16578;53.266;7.920;2023-06-26T14:45:39;3.20;;;1.65;;
29662;SDS011;16578;53.266;7.920;2023-06-26T14:48:04;4.28;;;1.90;;
29662;SDS011;16578;53.266;7.920;2023-06-26T14:50:30;4.13;;;1.65;;
29662;SDS011;16578;53.266;7.920;2023-06-26T14:52:56;3.92;;;1.20;;
29662;SDS011;16578;53.266;7.920;2023-06-26T14:55:21;2.25;;;1.42;;